Time;durP1;ratioP1;P1;durP2;ratioP2;P2;SDS_P1;SDS_P2;PMS_P1;PMS_P2;Temp;Humidity;BMP_temperature;BMP_pressure;BME280_temperature;BME280_humidity;BME280_pressure;Samples;Min_cycle;Max_cycle;Signal;HPM_P1;HPM_P2
2022/11/20 00:02:06;;;;;;;20.43;12.07;;;;;;;-4.37;88.63;100561.81;5026344;28;20234;-75
2022/11/20 00:04:32;;;;;;;20.43;12.47;;;;;;;-4.39;88.58;100559.22;5021433;28;20214;-76
2022/11/20 00:07:00;;;;;;;25.83;13.53;;;;;;;-4.39;88.61;100558.34;5026929;28;20206;-76
2022/11/20 00:09:26;;;;;;;22.90;13.80;;;;;;;-4.41;88.46;100558.34;5023719;28;20313;-75
2022/11/20 00:11:53;;;;;;;27.57;13.53;;;;;;;-4.42;88.66;100561.81;5028290;28;20218;-76
2022/11/20 00:14:20;;;;;;;23.57;13.67;;;;;;;-4.43;88.76;100561.84;5027094;28;20217;-75
2022/11/20 00:16:46;;;;;;;20.50;13.27;;;;;;;-4.45;88.57;100555.78;5026979;28;20683;-76
2022/11/20 00:19:13;;;;;;;22.53;13.37;;;;;;;-4.47;88.67;100557.50;5030401;28;20289;-76
2022/11/20 00:21:39;;;;;;;20.97;13.23;;;;;;;-4.47;88.38;100560.09;5027626;28;20657;-75
2022/11/20 00:24:09;;;;;;;21.20;12.77;;;;;;;-4.48;88.61;100550.63;5030364;28;20202;-77
2022/11/20 00:26:36;;;;;;;21.30;13.10;;;;;;;-4.50;88.65;100558.41;5029727;28;20204;-76
2022/11/20 00:29:03;;;;;;;24.10;12.93;;;;;;;-4.52;88.63;100557.56;5031559;28;20241;-76
2022/11/20 00:31:32;;;;;;;22.60;13.47;;;;;;;-4.54;88.70;100551.50;5027661;28;20241;-76
2022/11/20 00:33:59;;;;;;;27.47;14.77;;;;;;;-4.56;88.67;100555.81;5030293;28;20234;-76
2022/11/20 00:36:27;;;;;;;26.90;14.47;;;;;;;-4.57;88.59;100556.69;5029396;28;20203;-75
2022/11/20 00:38:55;;;;;;;22.50;13.00;;;;;;;-4.59;88.62;100563.63;5028120;28;20207;-76
2022/11/20 00:41:23;;;;;;;23.13;14.00;;;;;;;-4.63;88.72;100560.16;5028606;28;20575;-75
2022/11/20 00:43:50;;;;;;;21.83;12.57;;;;;;;-4.67;88.49;100552.41;5025809;28;20202;-76
2022/11/20 00:46:18;;;;;;;20.77;13.10;;;;;;;-4.70;88.54;100558.47;5029486;28;20206;-75
2022/11/20 00:48:46;;;;;;;25.73;13.33;;;;;;;-4.71;88.56;100554.16;5029250;28;20222;-75
2022/11/20 00:51:14;;;;;;;24.83;12.73;;;;;;;-4.73;88.66;100548.09;5026790;28;20213;-75
2022/11/20 00:53:40;;;;;;;18.00;12.43;;;;;;;-4.75;88.70;100551.56;5028330;28;20209;-76
2022/11/20 00:56:10;;;;;;;27.73;13.17;;;;;;;-4.76;88.60;100549.81;5024415;28;20214;-76
2022/11/20 00:58:40;;;;;;;24.07;13.80;;;;;;;-4.79;88.48;100545.50;5028484;28;20210;-76
2022/11/20 01:01:08;;;;;;;24.27;13.77;;;;;;;-4.80;88.67;100541.16;5030107;28;20676;-76
2022/11/20 01:03:36;;;;;;;29.90;16.07;;;;;;;-4.80;88.68;100540.31;5030352;28;20206;-76
2022/11/20 01:06:04;;;;;;;28.57;15.30;;;;;;;-4.80;88.82;100548.09;5030482;28;20233;-77
2022/11/20 01:08:32;;;;;;;24.53;13.30;;;;;;;-4.82;88.55;100547.22;5025482;28;20225;-76
2022/11/20 01:11:02;;;;;;;25.13;14.13;;;;;;;-4.85;88.56;100536.88;5031321;28;20307;-75
2022/11/20 01:13:39;;;;;;;22.30;12.43;;;;;;;-4.85;88.80;100542.06;5029227;28;20224;-77
2022/11/20 01:16:09;;;;;;;18.40;12.40;;;;;;;-4.86;88.73;100540.34;5027739;28;20206;-74
2022/11/20 01:18:36;;;;;;;16.40;11.13;;;;;;;-4.87;88.78;100543.81;5029315;28;20201;-76
2022/11/20 01:21:04;;;;;;;19.50;10.80;;;;;;;-4.87;88.87;100542.06;5027054;28;20206;-75
2022/11/20 01:23:32;;;;;;;16.87;10.67;;;;;;;-4.89;88.96;100530.81;5030509;28;20222;-75
2022/11/20 01:26:01;;;;;;;18.47;10.80;;;;;;;-4.91;88.75;100535.16;5035805;28;20275;-74
2022/11/20 01:28:27;;;;;;;20.37;12.00;;;;;;;-4.93;88.78;100531.69;5035596;28;20202;-76
2022/11/20 01:30:54;;;;;;;19.77;10.87;;;;;;;-4.92;88.77;100538.63;5031316;28;20217;-75
2022/11/20 01:33:22;;;;;;;16.13;10.23;;;;;;;-4.94;88.98;100536.00;5035341;28;20252;-75
2022/11/20 01:35:48;;;;;;;18.07;10.00;;;;;;;-4.94;89.08;100528.22;5033794;28;20209;-76
2022/11/20 01:38:15;;;;;;;18.50;10.23;;;;;;;-4.95;88.84;100523.03;5028260;28;20608;-76
2022/11/20 01:40:42;;;;;;;18.37;9.97;;;;;;;-4.97;88.98;100517.84;5023583;28;20199;-76
2022/11/20 01:43:22;;;;;;;17.70;10.63;;;;;;;-4.97;89.01;100520.44;5022490;28;20305;-75
2022/11/20 01:46:02;;;;;;;16.63;10.00;;;;;;;-4.98;88.89;100521.31;5018181;28;20668;-75
2022/11/20 01:48:37;;;;;;;17.27;10.00;;;;;;;-5.00;89.05;100514.38;5021041;28;20205;-76
2022/11/20 01:51:04;;;;;;;16.73;8.77;;;;;;;-5.02;88.84;100508.34;5022658;28;20213;-77
2022/11/20 01:53:34;;;;;;;18.87;10.93;;;;;;;-5.04;89.03;100497.97;5023506;28;20214;-76
2022/11/20 01:56:03;;;;;;;22.57;11.30;;;;;;;-5.06;88.90;100491.91;5027746;28;20224;-75
2022/11/20 01:58:36;;;;;;;21.60;11.93;;;;;;;-5.06;89.04;100494.50;5027488;28;20210;-77
2022/11/20 02:01:03;;;;;;;16.53;11.07;;;;;;;-5.07;88.69;100497.09;5023419;28;20680;-75
2022/11/20 02:03:32;;;;;;;20.50;12.40;;;;;;;-5.09;88.90;100489.31;5025534;28;20779;-75
2022/11/20 02:06:05;;;;;;;17.30;10.83;;;;;;;-5.11;88.95;100487.59;5025226;28;20202;-75
2022/11/20 02:08:33;;;;;;;18.83;11.57;;;;;;;-5.13;88.77;100485.00;5025094;28;20209;-73
2022/11/20 02:10:59;;;;;;;20.93;11.43;;;;;;;-5.14;88.93;100482.41;5023838;28;20222;-76
2022/11/20 02:13:43;;;;;;;15.47;10.33;;;;;;;-5.14;88.90;100482.41;5027317;28;20236;-74
2022/11/20 02:16:13;;;;;;;16.27;10.63;;;;;;;-5.17;88.98;100491.06;5029349;28;20237;-75
2022/11/20 02:18:41;;;;;;;15.73;9.67;;;;;;;-5.19;88.78;100497.13;5027861;28;20198;-75
2022/11/20 02:21:13;;;;;;;16.00;10.40;;;;;;;-5.20;88.65;100492.81;5024738;28;20218;-74
2022/11/20 02:23:45;;;;;;;19.13;11.63;;;;;;;-5.22;88.92;100498.00;5024661;28;20205;-75
2022/11/20 02:26:16;;;;;;;20.33;10.70;;;;;;;-5.22;88.94;100490.22;5025829;28;20214;-76
2022/11/20 02:28:42;;;;;;;17.00;10.60;;;;;;;-5.23;89.16;100495.41;5027699;28;20194;-75
2022/11/20 02:31:09;;;;;;;15.40;10.53;;;;;;;-5.25;89.04;100490.22;5027423;28;20232;-74
2022/11/20 02:33:35;;;;;;;15.83;9.93;;;;;;;-5.26;89.00;100488.50;5026299;28;20206;-76
2022/11/20 02:36:02;;;;;;;20.23;10.60;;;;;;;-5.26;89.32;100486.75;5032843;28;20212;-75
2022/11/20 02:38:28;;;;;;;19.17;10.37;;;;;;;-5.26;89.10;100485.91;5032041;28;20198;-77
2022/11/20 02:40:55;;;;;;;14.47;9.77;;;;;;;-5.26;89.47;100478.97;5028839;28;20209;-75
2022/11/20 02:43:23;;;;;;;17.93;9.83;;;;;;;-5.27;89.62;100469.44;5026730;28;20230;-75
2022/11/20 02:45:49;;;;;;;12.90;8.93;;;;;;;-5.28;89.37;100464.25;5026748;28;20206;-75
2022/11/20 02:48:16;;;;;;;13.73;9.53;;;;;;;-5.27;89.79;100460.81;5026218;28;20217;-74
2022/11/20 02:50:42;;;;;;;15.63;8.97;;;;;;;-5.29;89.76;100459.94;5026195;28;20226;-75
2022/11/20 02:53:09;;;;;;;13.67;9.33;;;;;;;-5.30;89.75;100456.47;5028675;28;20240;-75
2022/11/20 02:55:36;;;;;;;15.83;9.57;;;;;;;-5.30;89.84;100456.47;5027444;28;20212;-75
2022/11/20 02:58:02;;;;;;;20.30;9.77;;;;;;;-5.30;89.91;100461.66;5024175;28;20210;-75
2022/11/20 03:00:30;;;;;;;14.63;9.00;;;;;;;-5.31;89.99;100459.94;5024527;28;20271;-75
2022/11/20 03:02:56;;;;;;;17.43;8.50;;;;;;;-5.31;90.17;100459.06;5020609;28;20226;-75
2022/11/20 03:05:23;;;;;;;13.80;8.93;;;;;;;-5.31;89.92;100459.06;5028758;28;20586;-75
2022/11/20 03:07:49;;;;;;;16.07;8.53;;;;;;;-5.32;89.98;100459.94;5022313;28;20595;-76
2022/11/20 03:10:16;;;;;;;14.40;9.03;;;;;;;-5.34;89.97;100466.84;5023137;28;20230;-76
2022/11/20 03:12:43;;;;;;;14.77;8.77;;;;;;;-5.36;89.90;100464.25;5018843;28;20221;-76
2022/11/20 03:15:10;;;;;;;20.73;9.30;;;;;;;-5.36;89.88;100468.59;5026338;28;20199;-75
2022/11/20 03:17:38;;;;;;;13.93;8.73;;;;;;;-5.37;89.99;100459.94;5025049;28;21895;-75
2022/11/20 03:20:05;;;;;;;14.67;9.60;;;;;;;-5.38;89.86;100457.38;5030027;28;20202;-75
2022/11/20 03:22:32;;;;;;;15.07;9.90;;;;;;;-5.38;90.14;100454.78;5027780;28;20234;-75
2022/11/20 03:24:58;;;;;;;18.00;10.67;;;;;;;-5.40;90.08;100461.69;5033825;28;20202;-75
2022/11/20 03:27:25;;;;;;;16.57;9.93;;;;;;;-5.41;89.96;100455.66;5038052;28;20217;-76
2022/11/20 03:29:51;;;;;;;20.83;10.90;;;;;;;-5.41;90.27;100453.06;5034632;28;20718;-75
2022/11/20 03:32:18;;;;;;;18.37;11.37;;;;;;;-5.43;89.78;100448.72;5029783;28;20234;-74
2022/11/20 03:34:45;;;;;;;20.90;11.57;;;;;;;-5.43;90.06;100443.53;5033838;28;20220;-76
2022/11/20 03:37:12;;;;;;;21.80;11.63;;;;;;;-5.44;90.08;100449.59;5030770;28;20206;-75
2022/11/20 03:39:38;;;;;;;16.00;10.30;;;;;;;-5.45;90.07;100445.28;5033272;28;20561;-76
2022/11/20 03:42:44;;;;;;;19.03;10.23;;;;;;;-5.46;90.16;100446.13;5032344;28;20703;-75
2022/11/20 03:44:52;;;;;;;14.63;8.83;;;;;;;-5.49;89.95;100449.59;5026555;28;20312;-73
2022/11/20 03:47:18;;;;;;;15.30;8.97;;;;;;;-5.50;89.72;100442.66;5029774;28;20207;-74
2022/11/20 03:49:46;;;;;;;18.43;10.03;;;;;;;-5.51;89.98;100440.94;5032597;28;20233;-75
2022/11/20 03:52:12;;;;;;;15.27;9.50;;;;;;;-5.52;90.17;100435.75;5032893;28;20229;-75
2022/11/20 03:54:39;;;;;;;16.53;10.27;;;;;;;-5.52;90.05;100439.22;5030585;28;20225;-75
2022/11/20 03:57:05;;;;;;;15.43;9.30;;;;;;;-5.52;89.94;100443.53;5026561;28;20243;-74
2022/11/20 03:59:32;;;;;;;13.03;8.37;;;;;;;-5.53;90.19;100437.47;5038378;28;20202;-75
2022/11/20 04:01:58;;;;;;;16.27;9.83;;;;;;;-5.53;90.17;100436.63;5037488;28;20584;-75
2022/11/20 04:04:25;;;;;;;18.33;9.67;;;;;;;-5.54;90.20;100434.88;5035635;28;20229;-75
2022/11/20 04:06:52;;;;;;;15.80;9.37;;;;;;;-5.54;90.23;100432.28;5038277;28;20204;-76
2022/11/20 04:09:19;;;;;;;17.07;9.70;;;;;;;-5.54;90.29;100432.28;5038737;28;20694;-74
2022/11/20 04:11:45;;;;;;;12.20;9.07;;;;;;;-5.54;90.14;100427.09;5030530;28;20241;-75
2022/11/20 04:14:15;;;;;;;17.73;9.80;;;;;;;-5.54;90.36;100419.31;5029141;28;20298;-75
2022/11/20 04:16:42;;;;;;;16.27;9.43;;;;;;;-5.56;90.21;100419.34;5035793;28;20285;-75
2022/11/20 04:19:12;;;;;;;17.40;10.17;;;;;;;-5.56;90.53;100421.94;5034957;28;20736;-75
2022/11/20 04:24:08;;;;;;;14.50;9.20;;;;;;;-5.57;90.17;100417.63;5088065;22;20233;-83
2022/11/20 04:26:35;;;;;;;15.90;9.50;;;;;;;-5.57;90.11;100416.75;5081487;28;20205;-82
2022/11/20 04:29:02;;;;;;;17.97;9.77;;;;;;;-5.57;90.26;100416.75;5076326;28;20230;-81
2022/11/20 04:31:30;;;;;;;14.30;9.00;;;;;;;-5.58;90.21;100412.44;5071298;28;20233;-82
2022/11/20 04:33:59;;;;;;;17.80;9.50;;;;;;;-5.58;90.22;100413.31;5051707;28;20590;-82
2022/11/20 04:36:28;;;;;;;15.17;9.50;;;;;;;-5.57;90.19;100412.44;5066743;28;20217;-81
2022/11/20 04:38:56;;;;;;;16.80;9.30;;;;;;;-5.58;90.17;100415.03;5067637;28;20221;-82
2022/11/20 04:41:26;;;;;;;16.03;9.30;;;;;;;-5.58;90.24;100408.09;5054007;28;20214;-82
2022/11/20 04:43:58;;;;;;;13.63;9.03;;;;;;;-5.58;90.37;100409.84;5055543;28;20228;-82
2022/11/20 04:46:26;;;;;;;13.50;8.60;;;;;;;-5.57;90.51;100416.75;5062893;28;20204;-82
2022/11/20 04:48:53;;;;;;;16.33;8.57;;;;;;;-5.56;90.48;100411.56;5070082;28;20236;-81
2022/11/20 04:51:19;;;;;;;16.00;9.03;;;;;;;-5.56;90.26;100416.75;5049632;28;20222;-82
2022/11/20 04:53:46;;;;;;;15.77;8.97;;;;;;;-5.55;90.69;100420.22;5061764;28;20201;-82
2022/11/20 04:56:13;;;;;;;15.47;8.80;;;;;;;-5.54;90.30;100419.31;5079055;28;20209;-82
2022/11/20 04:58:41;;;;;;;12.60;8.43;;;;;;;-5.55;90.64;100418.44;5059578;28;20229;-81
2022/11/20 05:01:11;;;;;;;10.90;8.07;;;;;;;-5.54;90.51;100412.41;5057324;28;20544;-83
2022/11/20 05:03:37;;;;;;;13.67;8.27;;;;;;;-5.53;90.72;100419.31;5059737;28;20209;-81
2022/11/20 05:06:05;;;;;;;12.47;8.03;;;;;;;-5.53;90.82;100408.94;5061307;28;20207;-83
2022/11/20 05:08:33;;;;;;;10.90;7.40;;;;;;;-5.51;90.70;100409.81;5063620;28;20225;-81
2022/11/20 05:11:04;;;;;;;15.37;8.23;;;;;;;-5.49;91.13;100404.63;5076363;28;20248;-84
2022/11/20 05:13:31;;;;;;;12.63;7.83;;;;;;;-5.47;91.05;100418.44;5067266;28;20209;-83
2022/11/20 05:16:03;;;;;;;12.37;8.03;;;;;;;-5.44;91.00;100413.25;5063534;28;20197;-83
2022/11/20 05:18:30;;;;;;;15.03;8.87;;;;;;;-5.43;91.19;100408.06;5051974;28;20228;-82
2022/11/20 05:20:57;;;;;;;13.43;7.80;;;;;;;-5.42;91.29;100406.34;5062478;28;20208;-81
2022/11/20 05:23:24;;;;;;;15.37;8.13;;;;;;;-5.41;91.29;100406.34;5067864;28;20220;-83
2022/11/20 05:25:53;;;;;;;13.27;7.90;;;;;;;-5.40;91.36;100402.00;5068476;28;20202;-82
2022/11/20 05:28:19;;;;;;;11.80;7.57;;;;;;;-5.39;91.05;100398.56;5066969;28;20222;-82
2022/11/20 05:30:46;;;;;;;11.07;8.20;;;;;;;-5.37;91.48;100392.47;5062167;28;20240;-84
2022/11/20 05:33:14;;;;;;;11.67;7.40;;;;;;;-5.35;91.60;100384.66;5068864;28;20208;-83
2022/11/20 05:35:40;;;;;;;11.60;7.30;;;;;;;-5.35;91.46;100380.34;5066084;28;20710;-83
2022/11/20 05:38:07;;;;;;;11.77;7.27;;;;;;;-5.34;91.45;100381.22;5068329;28;20221;-82
2022/11/20 05:40:34;;;;;;;13.03;7.70;;;;;;;-5.33;91.59;100389.00;5064711;28;20205;-82
2022/11/20 05:43:00;;;;;;;13.90;7.67;;;;;;;-5.32;91.51;100395.06;5065536;28;20215;-82
2022/11/20 05:45:27;;;;;;;12.80;8.13;;;;;;;-5.33;91.32;100386.41;5066912;28;20202;-83
2022/11/20 05:47:54;;;;;;;13.27;8.37;;;;;;;-5.33;91.43;100388.13;5065663;28;20208;-82
2022/11/20 05:50:22;;;;;;;11.47;8.07;;;;;;;-5.31;91.79;100386.41;5063618;28;20225;-84
2022/11/20 05:52:48;;;;;;;12.13;8.47;;;;;;;-5.30;91.66;100389.00;5061738;28;20231;-83
2022/11/20 05:55:15;;;;;;;12.93;7.93;;;;;;;-5.28;91.84;100397.63;5060806;28;20198;-83
2022/11/20 05:57:41;;;;;;;12.57;8.13;;;;;;;-5.26;91.94;100402.81;5055823;28;20221;-82
2022/11/20 06:00:09;;;;;;;13.87;7.83;;;;;;;-5.25;92.04;100395.03;5048701;28;20350;-83
2022/11/20 06:02:35;;;;;;;12.37;8.10;;;;;;;-5.21;92.31;100392.44;5059760;28;20205;-83
2022/11/20 06:05:02;;;;;;;11.73;7.83;;;;;;;-5.18;92.35;100398.47;5059361;28;20209;-83
2022/11/20 06:07:30;;;;;;;12.67;8.03;;;;;;;-5.16;92.45;100406.25;5074184;28;20212;-83
2022/11/20 06:09:56;;;;;;;14.87;7.73;;;;;;;-5.14;92.68;100399.31;5079734;28;20225;-83
2022/11/20 06:12:23;;;;;;;15.80;8.60;;;;;;;-5.13;92.68;100404.50;5079208;28;20302;-83
2022/11/20 06:14:49;;;;;;;14.60;8.93;;;;;;;-5.10;92.81;100396.72;5079916;28;20671;-82
2022/11/20 06:17:15;;;;;;;14.43;9.33;;;;;;;-5.07;92.90;100401.03;5079628;28;20197;-83
2022/11/20 06:19:42;;;;;;;13.63;9.20;;;;;;;-5.06;92.87;100401.03;5079139;28;20224;-82
2022/11/20 06:22:08;;;;;;;17.53;9.50;;;;;;;-5.04;93.11;100390.63;5073359;28;20212;-82
2022/11/20 06:24:36;;;;;;;16.20;9.73;;;;;;;-5.00;93.21;100400.13;5058194;28;20224;-82
2022/11/20 06:27:03;;;;;;;14.87;9.40;;;;;;;-4.99;93.16;100391.44;5071153;28;20827;-82
2022/11/20 06:29:29;;;;;;;13.80;9.67;;;;;;;-4.97;93.30;100395.78;5058508;28;20226;-82
2022/11/20 06:31:55;;;;;;;17.77;10.57;;;;;;;-4.94;93.49;100389.72;5057075;28;20225;-82
2022/11/20 06:34:22;;;;;;;15.43;10.43;;;;;;;-4.93;93.59;100388.84;5057631;28;20208;-83
2022/11/20 06:36:48;;;;;;;19.50;10.53;;;;;;;-4.91;93.55;100385.38;5058447;28;20193;-82
2022/11/20 06:39:15;;;;;;;17.50;11.00;;;;;;;-4.87;93.61;100383.63;5076507;28;20228;-82
2022/11/20 06:41:43;;;;;;;17.20;10.20;;;;;;;-4.86;93.76;100382.75;5066439;28;20205;-82
2022/11/20 06:44:09;;;;;;;16.30;10.43;;;;;;;-4.84;94.00;100383.63;5056029;28;20547;-84
2022/11/20 06:46:36;;;;;;;15.63;9.57;;;;;;;-4.81;93.88;100382.72;5049294;28;20210;-83
2022/11/20 06:49:02;;;;;;;18.40;9.67;;;;;;;-4.80;94.08;100382.72;5053610;28;20221;-83
2022/11/20 06:51:35;;;;;;;14.53;8.97;;;;;;;-4.78;94.00;100374.91;5056679;28;20332;-82
2022/11/20 06:54:02;;;;;;;15.63;8.70;;;;;;;-4.75;93.78;100369.69;5041224;28;20205;-84
2022/11/20 06:56:28;;;;;;;12.20;8.17;;;;;;;-4.75;93.87;100369.69;5060784;28;20301;-84
2022/11/20 06:58:56;;;;;;;11.23;7.97;;;;;;;-4.72;93.97;100367.94;5060387;28;20296;-83
2022/11/20 07:01:23;;;;;;;15.37;8.33;;;;;;;-4.71;93.87;100368.81;5056061;28;20261;-84
2022/11/20 07:03:49;;;;;;;14.80;9.07;;;;;;;-4.68;94.17;100368.81;5064388;28;20205;-83
2022/11/20 07:06:16;;;;;;;12.73;8.40;;;;;;;-4.67;94.02;100362.72;5060299;28;20210;-83
2022/11/20 07:08:42;;;;;;;12.03;8.77;;;;;;;-4.65;94.07;100353.16;5054230;28;20225;-84
2022/11/20 07:11:12;;;;;;;14.87;8.20;;;;;;;-4.63;94.13;100348.81;5054059;28;20225;-82
2022/11/20 07:13:39;;;;;;;12.87;8.10;;;;;;;-4.61;94.41;100341.88;5055558;28;20206;-83
2022/11/20 07:16:09;;;;;;;16.10;9.63;;;;;;;-4.57;94.34;100346.19;5057153;28;20206;-82
2022/11/20 07:18:36;;;;;;;13.97;9.80;;;;;;;-4.52;94.60;100344.44;5065637;28;20236;-82
2022/11/20 07:21:03;;;;;;;13.10;8.60;;;;;;;-4.50;94.40;100358.28;5059659;28;20201;-82
2022/11/20 07:23:30;;;;;;;14.43;8.80;;;;;;;-4.47;94.87;100360.84;5052498;28;20218;-82
2022/11/20 07:25:56;;;;;;;13.17;8.50;;;;;;;-4.43;94.76;100365.16;5065742;28;20207;-83
2022/11/20 07:28:23;;;;;;;14.50;9.17;;;;;;;-4.40;94.53;100372.94;5062474;28;20234;-84
2022/11/20 07:30:53;;;;;;;15.50;9.53;;;;;;;-4.37;94.47;100365.13;5065286;28;20218;-82
2022/11/20 07:33:24;;;;;;;16.33;9.17;;;;;;;-4.32;94.42;100373.75;5064256;28;20205;-82
2022/11/20 07:35:50;;;;;;;14.60;9.20;;;;;;;-4.30;94.89;100371.97;5058998;28;20220;-84
2022/11/20 07:38:17;;;;;;;15.60;9.03;;;;;;;-4.25;94.92;100371.94;5058015;28;20217;-86
2022/11/20 07:40:43;;;;;;;15.33;9.50;;;;;;;-4.21;95.05;100371.06;5068725;28;20206;-85
2022/11/20 07:43:10;;;;;;;13.53;8.17;;;;;;;-4.19;95.03;100374.50;5064162;28;20206;-83
2022/11/20 07:45:36;;;;;;;14.03;8.83;;;;;;;-4.14;95.06;100361.47;5061976;28;20405;-83
2022/11/20 07:48:03;;;;;;;13.83;9.37;;;;;;;-4.10;94.95;100368.34;5071653;28;20669;-83
2022/11/20 07:50:31;;;;;;;12.90;8.70;;;;;;;-4.07;95.38;100368.34;5073685;28;20210;-83
2022/11/20 07:53:04;;;;;;;14.33;8.87;;;;;;;-4.03;95.26;100373.50;5063670;28;20216;-82
2022/11/20 07:55:31;;;;;;;13.03;8.27;;;;;;;-4.00;95.25;100370.03;5061033;28;20210;-83
2022/11/20 07:57:58;;;;;;;12.87;8.87;;;;;;;-3.96;95.28;100371.72;5064416;28;20208;-84
2022/11/20 08:00:25;;;;;;;14.27;8.83;;;;;;;-3.93;95.67;100372.53;5060817;28;20558;-85
2022/11/20 08:02:52;;;;;;;13.50;8.63;;;;;;;-3.89;95.34;100379.44;5063908;28;20237;-84
2022/11/20 08:05:19;;;;;;;13.33;9.20;;;;;;;-3.87;95.37;100375.09;5067087;28;20201;-84
2022/11/20 08:07:47;;;;;;;13.83;8.67;;;;;;;-3.83;95.57;100370.72;5061822;28;20205;-83
2022/11/20 08:10:15;;;;;;;14.63;8.73;;;;;;;-3.80;95.46;100372.44;5067092;28;20225;-83
2022/11/20 08:15:29;;;;;;;13.87;9.10;;;;;;;-3.71;95.47;100377.53;5072427;28;20215;-85
2022/11/20 08:18:00;;;;;;;16.40;9.83;;;;;;;-3.70;95.28;100379.25;5059557;28;20575;-83
2022/11/20 08:20:28;;;;;;;15.10;9.77;;;;;;;-3.67;95.39;100381.84;5062006;28;20197;-85
2022/11/20 08:23:00;;;;;;;13.80;9.13;;;;;;;-3.63;95.44;100380.94;5051238;28;20217;-85
2022/11/20 08:25:27;;;;;;;18.43;11.40;;;;;;;-3.60;95.52;100375.72;5057404;28;20215;-85
2022/11/20 08:27:54;;;;;;;17.50;12.37;;;;;;;-3.59;95.21;100383.50;5056017;28;20208;-86
2022/11/20 08:30:20;;;;;;;14.50;9.57;;;;;;;-3.55;95.50;100373.91;5057996;28;20202;-84
2022/11/20 08:32:47;;;;;;;17.27;10.23;;;;;;;-3.51;95.59;100373.84;5054171;28;20232;-86
2022/11/20 08:35:13;;;;;;;18.13;10.90;;;;;;;-3.47;95.39;100385.13;5054191;28;20568;-84
2022/11/20 08:37:41;;;;;;;17.60;11.00;;;;;;;-3.44;95.27;100384.22;5054579;28;20208;-84
2022/11/20 08:40:11;;;;;;;14.33;10.77;;;;;;;-3.41;95.34;100384.19;5052347;28;20588;-85
2022/11/20 08:42:38;;;;;;;14.67;10.27;;;;;;;-3.40;95.06;100378.09;5056189;28;20276;-85
2022/11/20 08:45:07;;;;;;;16.27;10.13;;;;;;;-3.37;95.03;100372.84;5054402;28;20206;-85
2022/11/20 08:47:33;;;;;;;14.23;9.97;;;;;;;-3.34;95.49;100376.28;5055009;28;20561;-85
2022/11/20 08:50:00;;;;;;;16.43;10.30;;;;;;;-3.32;95.02;100374.53;5057027;28;20575;-84
2022/11/20 08:52:26;;;;;;;16.67;10.30;;;;;;;-3.31;94.96;100367.56;5047834;28;20225;-84
2022/11/20 08:54:53;;;;;;;13.90;10.30;;;;;;;-3.26;95.21;100373.59;5050484;28;20205;-84
2022/11/20 08:57:20;;;;;;;17.07;11.07;;;;;;;-3.21;95.01;100371.78;5049445;28;20575;-84
2022/11/20 08:59:47;;;;;;;15.87;11.10;;;;;;;-3.18;95.20;100374.34;5051839;28;20272;-85
2022/11/20 09:02:13;;;;;;;14.13;10.10;;;;;;;-3.13;95.21;100379.50;5061484;28;20578;-85
2022/11/20 09:04:40;;;;;;;13.37;9.33;;;;;;;-3.09;95.41;100383.81;5054625;28;20198;-84
2022/11/20 09:07:06;;;;;;;14.03;9.90;;;;;;;-3.06;95.35;100387.25;5058005;28;20211;-85
2022/11/20 09:09:33;;;;;;;13.27;9.13;;;;;;;-3.04;95.31;100382.84;5061725;28;20229;-85
2022/11/20 09:12:00;;;;;;;14.83;9.90;;;;;;;-3.00;95.08;100371.53;5063986;28;20217;-87
2022/11/20 09:14:29;;;;;;;13.13;8.87;;;;;;;-2.96;95.35;100362.78;5048984;28;20240;-85
2022/11/20 09:16:56;;;;;;;12.17;8.20;;;;;;;-2.91;95.26;100371.41;5056075;28;20197;-86
2022/11/20 09:19:24;;;;;;;12.53;8.10;;;;;;;-2.87;94.94;100372.25;5048898;28;20229;-85
2022/11/20 09:21:50;;;;;;;11.53;7.43;;;;;;;-2.83;95.09;100366.94;5052445;28;20564;-85
2022/11/20 09:24:17;;;;;;;9.00;6.43;;;;;;;-2.78;94.95;100364.28;5048236;28;20240;-85
2022/11/20 09:26:44;;;;;;;10.87;7.77;;;;;;;-2.75;95.41;100340.78;5043054;28;20232;-85
2022/11/20 09:29:10;;;;;;;13.20;7.63;;;;;;;-2.69;95.07;100329.44;5044494;28;20240;-86
2022/11/20 09:31:38;;;;;;;10.70;7.20;;;;;;;-2.62;94.58;100344.06;5046714;28;20226;-85
2022/11/20 09:34:05;;;;;;;10.40;7.47;;;;;;;-2.59;94.72;100338.81;5037981;28;20617;-86
2022/11/20 09:36:31;;;;;;;16.23;9.23;;;;;;;-2.56;94.59;100357.91;5042418;28;20209;-85
2022/11/20 09:38:58;;;;;;;10.17;6.90;;;;;;;-2.49;94.36;100353.44;5038147;28;20226;-86
2022/11/20 09:41:43;;;;;;;9.67;6.77;;;;;;;-2.43;94.15;100361.16;5042403;28;20673;-84
2022/11/20 09:44:27;;;;;;;11.13;7.50;;;;;;;-2.39;93.84;100352.44;5044796;28;20202;-86
2022/11/20 09:47:02;;;;;;;11.63;8.10;;;;;;;-2.31;93.10;100354.91;5048470;28;20212;-86
2022/11/20 09:49:42;;;;;;;14.23;10.43;;;;;;;-2.25;93.17;100357.41;5055612;28;20221;-86
2022/11/20 09:52:19;;;;;;;14.13;8.63;;;;;;;-2.20;92.25;100356.47;5043452;28;20225;-85
2022/11/20 09:54:46;;;;;;;9.50;7.27;;;;;;;-2.14;91.82;100338.09;5045192;28;20201;-85
2022/11/20 09:57:15;;;;;;;10.20;7.80;;;;;;;-2.09;91.63;100322.38;5047383;28;20205;-87
2022/11/20 09:59:44;;;;;;;12.10;8.50;;;;;;;-2.04;90.82;100320.53;5048724;28;20228;-84
2022/11/20 10:02:20;;;;;;;11.70;8.20;;;;;;;-2.02;89.98;100323.13;5056293;28;20289;-85
2022/11/20 10:04:55;;;;;;;13.03;8.63;;;;;;;-2.03;89.45;100310.97;5050737;28;20188;-85
2022/11/20 10:07:26;;;;;;;12.30;7.13;;;;;;;-2.01;88.95;100311.81;5045651;28;20206;-86
2022/11/20 10:09:57;;;;;;;10.27;6.90;;;;;;;-1.94;88.14;100321.22;5040592;28;20222;-86
2022/11/20 10:12:32;;;;;;;11.17;7.20;;;;;;;-1.90;87.78;100322.91;5044321;28;20226;-87
2022/11/20 10:15:13;;;;;;;45.07;23.67;;;;;;;-1.83;87.14;100333.22;5045947;28;20201;-84
2022/11/20 10:18:12;;;;;;;21.93;13.03;;;;;;;-1.73;86.72;100344.34;5044862;28;20228;-84
2022/11/20 10:20:47;;;;;;;12.30;8.47;;;;;;;-1.64;85.98;100351.16;5067288;28;20211;-84
2022/11/20 10:23:30;;;;;;;22.93;14.90;;;;;;;-1.53;86.02;100362.25;5053686;28;20702;-83
2022/11/20 10:26:02;;;;;;;105.90;43.87;;;;;;;-1.42;85.58;100362.91;5046668;28;20212;-84
2022/11/20 10:28:47;;;;;;;38.17;22.03;;;;;;;-1.33;85.15;100364.50;5053800;28;20222;-86
2022/11/20 10:31:28;;;;;;;74.30;33.80;;;;;;;-1.24;84.79;100354.69;5044145;28;20205;-86
2022/11/20 10:34:00;;;;;;;19.13;12.80;;;;;;;-1.19;84.09;100359.84;5045794;28;20288;-85
2022/11/20 10:36:31;;;;;;;13.33;9.67;;;;;;;-1.15;83.47;100353.66;5061141;28;20208;-84
2022/11/20 10:39:00;;;;;;;13.13;9.90;;;;;;;-1.13;82.78;100347.53;5050972;28;20249;-84
2022/11/20 10:41:29;;;;;;;21.30;10.67;;;;;;;-1.11;82.41;100343.13;5045754;28;20202;-84
2022/11/20 10:44:04;;;;;;;13.37;9.77;;;;;;;-1.06;81.89;100343.00;5061987;28;20259;-84
2022/11/20 10:46:38;;;;;;;108.40;40.43;;;;;;;-1.05;81.49;100348.22;5059174;28;20201;-83
2022/11/20 10:49:14;;;;;;;46.57;20.23;;;;;;;-1.06;80.65;100336.03;5037014;28;20226;-83
2022/11/20 10:51:52;;;;;;;130.77;45.50;;;;;;;-1.05;80.32;100344.75;5052919;28;20214;-83
2022/11/20 10:54:26;;;;;;;121.17;41.90;;;;;;;-1.04;80.00;100343.84;5053655;28;20223;-84
2022/11/20 10:56:56;;;;;;;119.33;40.57;;;;;;;-1.07;79.41;100329.09;5043139;28;20212;-83
2022/11/20 10:59:45;;;;;;;119.13;43.43;;;;;;;-1.02;79.46;100334.22;5054850;28;20569;-84
2022/11/20 11:02:17;;;;;;;75.73;32.23;;;;;;;-1.03;79.11;100336.88;5058209;28;20208;-82
2022/11/20 11:04:47;;;;;;;37.23;18.27;;;;;;;-1.03;79.37;100331.63;5058049;28;20205;-83
2022/11/20 11:07:18;;;;;;;22.97;14.73;;;;;;;-0.99;78.68;100313.25;5057773;28;20294;-83
2022/11/20 11:09:49;;;;;;;16.83;11.97;;;;;;;-0.96;78.60;100313.19;5074759;22;20239;-83
2022/11/20 11:12:20;;;;;;;16.37;11.80;;;;;;;-0.96;78.72;100301.88;5058441;28;20223;-83
2022/11/20 11:14:56;;;;;;;20.23;13.10;;;;;;;-0.93;78.14;100296.59;5058591;28;20205;-83
2022/11/20 11:17:28;;;;;;;11.97;7.67;;;;;;;-0.89;78.21;100288.63;5050341;28;20208;-83
2022/11/20 11:20:05;;;;;;;12.47;9.10;;;;;;;-0.88;77.88;100285.09;5056967;28;20213;-83
2022/11/20 11:22:34;;;;;;;16.27;10.80;;;;;;;-0.83;77.88;100291.09;5054104;28;20205;-83
2022/11/20 11:25:23;;;;;;;14.53;10.90;;;;;;;-0.79;77.90;100295.38;5058293;28;20209;-82
2022/11/20 11:27:58;;;;;;;15.80;11.70;;;;;;;-0.79;77.53;100302.34;5058366;28;20192;-82